createdAt,value
2023-07-05T00:01:34.214Z,99494.81
2023-07-05T00:03:37.172Z,99491.41
2023-07-05T00:05:40.469Z,99494.53
2023-07-05T00:07:43.362Z,99499.00
2023-07-05T00:09:46.250Z,99500.16
2023-07-05T00:11:49.134Z,99493.41
2023-07-05T00:13:52.147Z,99489.19
2023-07-05T00:15:55.823Z,99498.19
2023-07-05T00:18:00.683Z,99489.19
2023-07-05T00:20:05.454Z,99490.84
2023-07-05T00:22:08.551Z,99499.41
2023-07-05T00:24:11.433Z,99487.72
2023-07-05T00:26:14.702Z,99482.47
2023-07-05T00:28:17.629Z,99480.75
2023-07-05T00:30:20.529Z,99477.56
2023-07-05T00:32:24.734Z,99475.91
2023-07-05T00:34:29.022Z,99471.06
2023-07-05T00:36:31.912Z,99461.31
2023-07-05T00:38:34.866Z,99467.94
2023-07-05T00:40:38.633Z,99460.88
2023-07-05T00:42:41.510Z,99462.59
2023-07-05T00:44:45.008Z,99466.50
2023-07-05T00:46:49.725Z,99459.72
2023-07-05T00:48:55.211Z,99452.34
2023-07-05T00:51:00.776Z,99468.56
2023-07-05T00:53:03.951Z,99473.38
2023-07-05T00:55:08.843Z,99459.78
2023-07-05T00:57:15.024Z,99463.28
2023-07-05T00:59:18.167Z,99460.47
2023-07-05T01:01:21.584Z,99466.09
2023-07-05T01:03:24.451Z,99467.75
2023-07-05T01:05:28.090Z,99471.44
2023-07-05T01:07:32.455Z,99477.03
2023-07-05T01:09:35.481Z,99472.47
2023-07-05T01:11:43.799Z,99465.44
2023-07-05T01:13:53.377Z,99465.69
2023-07-05T01:16:03.854Z,99459.84
2023-07-05T01:18:12.728Z,99457.81
2023-07-05T01:20:24.647Z,99447.13
2023-07-05T01:22:52.384Z,99447.53
2023-07-05T01:25:04.099Z,99456.13
2023-07-05T01:27:33.809Z,99453.81
2023-07-05T01:29:55.692Z,99459.22
2023-07-05T01:32:05.850Z,99465.47
2023-07-05T01:34:13.334Z,99459.97
2023-07-05T01:36:16.645Z,99463.34
2023-07-05T01:38:19.520Z,99468.91
2023-07-05T01:40:53.406Z,99456.56
2023-07-05T01:42:57.478Z,99463.50
2023-07-05T01:45:00.806Z,99460.38
2023-07-05T01:47:08.962Z,99445.59
2023-07-05T01:49:26.666Z,99445.47
2023-07-05T01:51:35.125Z,99433.50
2023-07-05T01:53:44.007Z,99420.03
2023-07-05T01:55:53.535Z,99414.56
2023-07-05T01:58:00.060Z,99415.91
2023-07-05T02:00:05.850Z,99421.97
2023-07-05T02:02:16.407Z,99404.16
2023-07-05T02:04:22.848Z,99402.19
2023-07-05T02:06:25.915Z,99412.94
2023-07-05T02:08:31.348Z,99397.22
2023-07-05T02:10:34.690Z,99390.94
2023-07-05T02:12:37.581Z,99380.91
2023-07-05T02:14:40.544Z,99387.03
2023-07-05T02:16:43.444Z,99383.41
2023-07-05T02:18:48.625Z,99378.31
2023-07-05T02:20:51.503Z,99370.75
2023-07-05T02:22:57.459Z,99355.63
2023-07-05T02:25:02.369Z,99356.19
2023-07-05T02:27:05.866Z,99360.81
2023-07-05T02:29:08.880Z,99337.38
2023-07-05T02:31:13.446Z,99349.81
2023-07-05T02:33:16.639Z,99330.28
2023-07-05T02:35:20.919Z,99333.88
2023-07-05T02:37:23.807Z,99330.75
2023-07-05T02:39:26.689Z,99331.72
2023-07-05T02:41:29.543Z,99337.06
2023-07-05T02:43:33.457Z,99332.69
2023-07-05T02:45:37.512Z,99317.47
2023-07-05T02:47:41.289Z,99305.34
2023-07-05T02:49:44.212Z,99314.66
2023-07-05T02:51:48.486Z,99316.75
2023-07-05T02:53:50.426Z,99328.72
2023-07-05T02:55:53.527Z,99317.09
2023-07-05T02:57:56.700Z,99314.81
2023-07-05T02:59:59.717Z,99326.09
2023-07-05T03:02:02.683Z,99317.41
2023-07-05T03:04:06.104Z,99310.22
2023-07-05T03:06:09.043Z,99326.97
2023-07-05T03:08:13.695Z,99325.00
2023-07-05T03:10:16.593Z,99332.50
2023-07-05T03:12:21.404Z,99324.06
2023-07-05T03:14:24.336Z,99336.28
2023-07-05T03:16:27.442Z,99331.31
2023-07-05T03:18:31.164Z,99325.25
2023-07-05T03:20:34.117Z,99311.03
2023-07-05T03:22:37.011Z,99290.41
2023-07-05T03:24:41.320Z,99283.38
2023-07-05T03:26:45.137Z,99292.09
2023-07-05T03:28:48.085Z,99312.19
2023-07-05T03:30:56.933Z,99312.63
2023-07-05T03:33:00.166Z,99320.66
2023-07-05T03:35:05.175Z,99320.59
2023-07-05T03:37:08.336Z,99329.34
2023-07-05T03:39:11.286Z,99328.97
2023-07-05T03:41:19.638Z,99326.59
2023-07-05T03:43:23.190Z,99336.75
2023-07-05T03:45:26.221Z,99331.75
2023-07-05T03:47:29.766Z,99335.31
2023-07-05T03:49:32.653Z,99330.25
2023-07-05T03:51:35.519Z,99338.97
2023-07-05T03:53:38.860Z,99337.97
2023-07-05T03:55:41.813Z,99326.78
2023-07-05T03:57:46.057Z,99332.38
2023-07-05T03:59:49.128Z,99342.09
2023-07-05T04:01:52.266Z,99332.00
2023-07-05T04:03:57.112Z,99330.88
2023-07-05T04:06:00.110Z,99338.16
2023-07-05T04:08:03.010Z,99329.47
2023-07-05T04:10:06.575Z,99315.72
2023-07-05T04:12:10.475Z,99325.94
2023-07-05T04:14:14.693Z,99334.47
2023-07-05T04:16:19.608Z,99351.41
2023-07-05T04:18:22.607Z,99343.84
2023-07-05T04:20:25.779Z,99361.66
2023-07-05T04:22:32.550Z,99370.25
2023-07-05T04:24:35.465Z,99381.53
2023-07-05T04:26:38.359Z,99407.03
2023-07-05T04:28:42.196Z,99405.47
2023-07-05T04:30:46.763Z,99404.63
2023-07-05T04:32:49.807Z,99403.91
2023-07-05T04:34:52.716Z,99408.03
2023-07-05T04:36:55.575Z,99424.22
2023-07-05T04:38:59.424Z,99414.84
2023-07-05T04:41:02.662Z,99432.56
2023-07-05T04:43:05.557Z,99414.28
2023-07-05T04:45:08.974Z,99414.19
2023-07-05T04:47:13.233Z,99423.41
2023-07-05T04:49:16.156Z,99435.97
2023-07-05T04:51:19.129Z,99429.38
2023-07-05T04:53:22.630Z,99426.72
2023-07-05T04:55:25.756Z,99425.00
2023-07-05T04:57:32.735Z,99425.00
2023-07-05T04:59:36.026Z,99437.84
2023-07-05T05:01:39.059Z,99445.03
2023-07-05T05:03:43.803Z,99449.13
2023-07-05T05:05:47.899Z,99443.47
2023-07-05T05:07:50.917Z,99451.22
2023-07-05T05:09:53.809Z,99461.41
2023-07-05T05:11:56.736Z,99458.66
2023-07-05T05:13:59.921Z,99461.53
2023-07-05T05:16:03.735Z,99471.44
2023-07-05T05:18:06.885Z,99459.94
2023-07-05T05:20:12.773Z,99472.44
2023-07-05T05:22:15.789Z,99472.75
2023-07-05T05:24:18.668Z,99471.56
2023-07-05T05:26:21.547Z,99467.91
2023-07-05T05:28:24.562Z,99456.13
2023-07-05T05:30:27.674Z,99441.28
2023-07-05T05:32:30.632Z,99441.84
2023-07-05T05:34:33.546Z,99429.63
2023-07-05T05:36:37.841Z,99427.66
2023-07-05T05:38:40.743Z,99429.09
2023-07-05T05:40:43.620Z,99419.47
2023-07-05T05:42:46.898Z,99411.16
2023-07-05T05:44:49.759Z,99423.94
2023-07-05T05:46:52.663Z,99422.44
2023-07-05T05:48:55.624Z,99429.22
2023-07-05T05:50:59.283Z,99433.47
2023-07-05T05:53:03.575Z,99423.31
2023-07-05T05:55:07.790Z,99421.28
2023-07-05T05:57:10.726Z,99437.97
2023-07-05T05:59:13.633Z,99424.41
2023-07-05T06:01:17.039Z,99425.75
2023-07-05T06:03:20.179Z,99431.16
2023-07-05T06:05:23.121Z,99425.59
2023-07-05T06:07:28.933Z,99423.88
2023-07-05T06:09:39.078Z,99426.47
2023-07-05T06:11:42.470Z,99442.47
2023-07-05T06:13:45.446Z,99451.78
2023-07-05T06:15:59.443Z,99449.06
2023-07-05T06:18:10.762Z,99454.41
2023-07-05T06:20:15.586Z,99462.22
2023-07-05T06:22:18.639Z,99466.97
2023-07-05T06:24:21.728Z,99462.66
2023-07-05T06:26:26.175Z,99463.53
2023-07-05T06:28:29.072Z,99458.75
2023-07-05T06:30:31.986Z,99453.84
2023-07-05T06:32:36.310Z,99465.25
2023-07-05T06:34:39.695Z,99470.25
2023-07-05T06:36:42.636Z,99474.84
2023-07-05T06:38:45.561Z,99458.03
2023-07-05T06:40:53.288Z,99463.44
2023-07-05T06:42:58.126Z,99463.81
2023-07-05T06:45:06.841Z,99455.97
2023-07-05T06:47:09.845Z,99470.00
2023-07-05T06:49:12.714Z,99461.38
2023-07-05T06:51:15.649Z,99473.84
2023-07-05T06:53:38.429Z,99475.06
2023-07-05T06:55:41.670Z,99471.75
2023-07-05T06:57:44.523Z,99478.69
2023-07-05T06:59:48.765Z,99501.28
2023-07-05T07:01:51.690Z,99489.34
2023-07-05T07:03:54.758Z,99493.72
2023-07-05T07:05:59.299Z,99487.91
2023-07-05T07:08:02.226Z,99505.00
2023-07-05T07:10:05.635Z,99468.25
2023-07-05T07:12:09.943Z,99485.47
2023-07-05T07:14:12.916Z,99487.66
2023-07-05T07:16:18.220Z,99495.91
2023-07-05T07:18:21.155Z,99512.28
2023-07-05T07:20:26.953Z,99463.47
2023-07-05T07:22:30.039Z,99471.94
2023-07-05T07:24:32.949Z,99457.88
2023-07-05T07:26:35.919Z,99485.56
2023-07-05T07:28:39.220Z,99477.50
2023-07-05T07:30:42.116Z,99478.81
2023-07-05T07:32:48.248Z,99479.28
2023-07-05T07:34:53.850Z,99483.16
2023-07-05T07:36:56.740Z,99475.28
2023-07-05T07:39:00.850Z,99506.34
2023-07-05T07:41:03.764Z,99510.59
2023-07-05T07:43:07.710Z,99497.41
2023-07-05T07:45:11.400Z,99501.03
2023-07-05T07:47:14.294Z,99498.06
2023-07-05T07:49:18.559Z,99511.59
2023-07-05T07:51:36.649Z,99511.16
2023-07-05T07:53:41.036Z,99514.56
2023-07-05T07:55:43.941Z,99512.38
2023-07-05T07:57:46.858Z,99506.31
2023-07-05T07:59:49.875Z,99521.13
2023-07-05T08:01:53.232Z,99522.78
2023-07-05T08:03:57.357Z,99521.94
2023-07-05T08:06:01.703Z,99541.94
2023-07-05T08:08:04.691Z,99538.31
2023-07-05T08:10:08.642Z,99543.16
2023-07-05T08:12:11.934Z,99544.59
2023-07-05T08:14:16.747Z,99550.31
2023-07-05T08:16:20.326Z,99559.75
2023-07-05T08:18:23.301Z,99556.72
2023-07-05T08:20:26.312Z,99571.25
2023-07-05T08:22:30.594Z,99582.16
2023-07-05T08:24:33.509Z,99591.22
2023-07-05T08:26:37.130Z,99585.63
2023-07-05T08:28:40.183Z,99594.84
2023-07-05T08:30:43.132Z,99597.25
2023-07-05T08:32:46.050Z,99615.78
2023-07-05T08:34:48.994Z,99625.88
2023-07-05T08:36:52.885Z,99631.47
2023-07-05T08:38:57.704Z,99629.25
2023-07-05T08:41:06.282Z,99629.97
2023-07-05T08:43:12.770Z,99629.69
2023-07-05T08:45:23.688Z,99648.44
2023-07-05T08:47:30.960Z,99633.00
2023-07-05T08:49:37.449Z,99627.28
2023-07-05T08:51:41.008Z,99622.16
2023-07-05T08:53:48.738Z,99617.66
2023-07-05T08:55:56.330Z,99628.88
2023-07-05T08:57:59.621Z,99633.25
2023-07-05T09:00:09.862Z,99639.47
2023-07-05T09:02:14.050Z,99635.63
2023-07-05T09:04:22.233Z,99632.31
2023-07-05T09:06:28.171Z,99610.91
2023-07-05T09:08:41.472Z,99653.16
2023-07-05T09:10:48.267Z,99637.66
2023-07-05T09:13:00.053Z,99645.56
2023-07-05T09:15:13.965Z,99640.50
2023-07-05T09:17:21.570Z,99645.13
2023-07-05T09:19:36.915Z,99652.38
2023-07-05T09:21:43.378Z,99646.44
2023-07-05T09:23:50.512Z,99642.91
2023-07-05T09:25:58.555Z,99649.97
2023-07-05T09:28:09.382Z,99657.94
2023-07-05T09:30:15.267Z,99659.31
2023-07-05T09:32:19.590Z,99666.03
2023-07-05T09:34:29.161Z,99662.13
2023-07-05T09:36:32.912Z,99656.66
2023-07-05T09:38:38.532Z,99655.28
2023-07-05T09:40:44.785Z,99652.41
2023-07-05T09:42:51.376Z,99651.88
2023-07-05T09:44:55.696Z,99655.88
2023-07-05T09:46:58.733Z,99646.53
2023-07-05T09:49:01.847Z,99661.53
2023-07-05T09:51:05.716Z,99666.03
2023-07-05T09:53:25.002Z,99645.81
2023-07-05T09:55:30.081Z,99642.56
2023-07-05T09:57:37.132Z,99720.81
2023-07-05T09:59:40.446Z,99676.81
2023-07-05T10:01:48.509Z,99665.09
2023-07-05T10:03:55.407Z,99649.41
2023-07-05T10:05:58.422Z,99660.16
2023-07-05T10:08:03.072Z,99640.13
2023-07-05T10:10:11.758Z,99657.88
2023-07-05T10:12:16.186Z,99651.28
2023-07-05T10:14:21.790Z,99640.00
2023-07-05T10:16:24.537Z,99679.47
2023-07-05T10:18:32.139Z,99652.53
2023-07-05T10:20:40.159Z,99676.69
2023-07-05T10:22:42.119Z,99657.06
2023-07-05T10:24:46.673Z,99665.53
2023-07-05T10:26:53.320Z,99670.03
2023-07-05T10:28:57.907Z,99675.69
2023-07-05T10:31:05.143Z,99691.19
2023-07-05T10:33:17.681Z,99694.38
2023-07-05T10:35:24.596Z,99723.13
2023-07-05T10:37:33.375Z,99702.50
2023-07-05T10:39:36.359Z,99703.66
2023-07-05T10:41:42.149Z,99707.16
2023-07-05T10:43:47.588Z,99721.03
2023-07-05T10:45:50.830Z,99729.88
2023-07-05T10:47:54.869Z,99721.41
2023-07-05T10:50:01.153Z,99725.94
2023-07-05T10:52:08.442Z,99721.63
2023-07-05T10:54:15.536Z,99725.41
2023-07-05T10:56:21.912Z,99717.53
2023-07-05T10:58:25.792Z,99723.34
2023-07-05T11:00:38.986Z,99713.44
2023-07-05T11:02:46.772Z,99717.22
2023-07-05T11:04:52.071Z,99751.44
2023-07-05T11:06:56.053Z,99732.25
2023-07-05T11:09:00.365Z,99720.91
2023-07-05T11:11:06.474Z,99743.28
2023-07-05T11:13:12.249Z,99722.50
2023-07-05T11:15:16.713Z,99728.69
2023-07-05T11:17:24.706Z,99742.50
2023-07-05T11:19:29.226Z,99723.09
2023-07-05T11:21:40.149Z,99736.38
2023-07-05T11:24:09.227Z,99736.34
2023-07-05T11:26:12.115Z,99737.06
2023-07-05T11:28:34.018Z,99727.13
2023-07-05T11:30:45.460Z,99734.63
2023-07-05T11:33:17.448Z,99738.94
2023-07-05T11:35:42.910Z,99739.13
2023-07-05T11:37:46.054Z,99736.72
2023-07-05T11:39:51.160Z,99748.09
2023-07-05T11:41:54.032Z,99758.53
2023-07-05T11:43:57.940Z,99765.72
2023-07-05T11:46:01.050Z,99754.78
2023-07-05T11:48:04.275Z,99744.53
2023-07-05T11:50:09.234Z,99738.53
2023-07-05T11:52:18.989Z,99746.25
2023-07-05T11:54:24.160Z,99761.72
2023-07-05T11:56:29.565Z,99767.41
2023-07-05T11:58:36.930Z,99758.06
2023-07-05T12:00:42.735Z,99748.13
2023-07-05T12:02:51.021Z,99763.19
2023-07-05T12:04:54.830Z,99771.09
2023-07-05T12:06:57.935Z,99758.91
2023-07-05T12:09:04.317Z,99766.81
2023-07-05T12:11:07.387Z,99742.81
2023-07-05T12:13:21.489Z,99760.97
2023-07-05T12:15:24.488Z,99754.03
2023-07-05T12:17:27.860Z,99750.16
2023-07-05T12:19:32.570Z,99768.50
2023-07-05T12:21:36.221Z,99757.75
2023-07-05T12:23:39.730Z,99761.63
2023-07-05T12:25:42.800Z,99771.19
2023-07-05T12:27:45.819Z,99771.41
2023-07-05T12:29:52.395Z,99784.34
2023-07-05T12:32:06.601Z,99771.63
2023-07-05T12:34:20.136Z,99751.16
2023-07-05T12:36:23.750Z,99770.69
2023-07-05T12:38:26.886Z,99770.47
2023-07-05T12:40:32.467Z,99775.16
2023-07-05T12:42:35.405Z,99778.72
2023-07-05T12:44:40.367Z,99780.88
2023-07-05T12:46:49.811Z,99779.75
2023-07-05T12:48:53.649Z,99782.19
2023-07-05T12:51:03.316Z,99784.59
2023-07-05T12:53:08.332Z,99822.91
2023-07-05T12:55:26.955Z,99788.06
2023-07-05T12:57:33.434Z,99788.31
2023-07-05T12:59:44.518Z,99785.50
2023-07-05T13:02:00.702Z,99805.81
2023-07-05T13:04:09.669Z,99794.47
2023-07-05T13:06:13.341Z,99812.06
2023-07-05T13:08:16.393Z,99811.22
2023-07-05T13:10:20.214Z,99823.19
2023-07-05T13:12:23.115Z,99820.09
2023-07-05T13:14:28.557Z,99815.63
2023-07-05T13:16:33.140Z,99794.31
2023-07-05T13:18:38.876Z,99822.84
2023-07-05T13:20:42.956Z,99801.50
2023-07-05T13:22:48.421Z,99814.94
2023-07-05T13:24:52.642Z,99810.03
2023-07-05T13:26:56.645Z,99810.81
2023-07-05T13:29:01.052Z,99798.25
2023-07-05T13:31:04.929Z,99820.91
2023-07-05T13:33:14.254Z,99808.25
2023-07-05T13:35:18.689Z,99816.00
2023-07-05T13:37:25.493Z,99817.16
2023-07-05T13:39:29.121Z,99829.13
2023-07-05T13:41:33.979Z,99813.81
2023-07-05T13:43:36.901Z,99839.03
2023-07-05T13:45:40.913Z,99833.66
2023-07-05T13:47:44.491Z,99833.91
2023-07-05T13:49:47.798Z,99853.78
2023-07-05T13:51:55.525Z,99862.56
2023-07-05T13:53:58.716Z,99862.22
2023-07-05T13:56:02.091Z,99864.06
2023-07-05T13:58:07.879Z,99866.88
2023-07-05T14:00:14.275Z,99873.50
2023-07-05T14:02:29.447Z,99882.56
2023-07-05T14:04:32.849Z,99873.94
2023-07-05T14:06:38.413Z,99868.00
2023-07-05T14:08:43.382Z,99878.91
2023-07-05T14:10:48.746Z,99888.63
2023-07-05T14:12:52.130Z,99883.00
2023-07-05T14:14:55.157Z,99870.00
2023-07-05T14:16:58.023Z,99874.25
2023-07-05T14:19:01.969Z,99834.41
2023-07-05T14:21:06.393Z,99884.25
2023-07-05T14:23:15.589Z,99868.88
2023-07-05T14:25:22.240Z,99868.31
2023-07-05T14:27:26.283Z,99882.16
2023-07-05T14:29:29.359Z,99892.59
2023-07-05T14:31:33.778Z,99887.22
2023-07-05T14:33:36.753Z,99890.06
2023-07-05T14:35:39.740Z,99871.84
2023-07-05T14:37:46.994Z,99896.81
2023-07-05T14:39:50.833Z,99898.09
2023-07-05T14:41:55.181Z,99915.59
2023-07-05T14:43:58.101Z,99906.69
2023-07-05T14:46:00.949Z,99904.97
2023-07-05T14:48:04.882Z,99902.31
2023-07-05T14:50:13.009Z,99914.06
2023-07-05T14:52:15.998Z,99907.84
2023-07-05T14:54:21.015Z,99908.66
2023-07-05T14:56:23.903Z,99908.69
2023-07-05T14:58:29.628Z,99926.13
2023-07-05T15:00:34.577Z,99920.19
2023-07-05T15:02:38.407Z,99928.84
2023-07-05T15:04:41.747Z,99948.81
2023-07-05T15:06:45.201Z,99939.50
2023-07-05T15:08:50.270Z,99936.16
2023-07-05T15:10:54.776Z,99972.28
2023-07-05T15:12:57.984Z,99957.97
2023-07-05T15:15:02.313Z,99943.19
2023-07-05T15:17:06.147Z,99927.28
2023-07-05T15:19:09.831Z,99935.72
2023-07-05T15:21:15.185Z,99937.94
2023-07-05T15:23:18.385Z,99956.50
2023-07-05T15:25:22.788Z,99955.06
2023-07-05T15:27:26.326Z,99947.22
2023-07-05T15:29:29.872Z,99952.28
2023-07-05T15:31:34.447Z,99952.00
2023-07-05T15:33:37.541Z,99958.78
2023-07-05T15:35:41.361Z,99947.22
2023-07-05T15:37:44.411Z,99952.97
2023-07-05T15:39:47.331Z,99946.38
2023-07-05T15:41:50.231Z,99958.38
2023-07-05T15:43:53.131Z,99949.47
2023-07-05T15:45:57.549Z,99948.38
2023-07-05T15:48:01.997Z,99962.34
2023-07-05T15:50:07.658Z,99962.69
2023-07-05T15:52:10.920Z,99967.09
2023-07-05T15:54:14.881Z,99974.41
2023-07-05T15:56:17.839Z,99976.22
2023-07-05T15:58:23.438Z,99976.53
2023-07-05T16:00:28.859Z,99964.44
2023-07-05T16:02:41.566Z,99963.97
2023-07-05T16:04:45.908Z,99968.81
2023-07-05T16:06:48.811Z,99984.16
2023-07-05T16:08:51.761Z,99983.41
2023-07-05T16:10:54.915Z,99990.38
2023-07-05T16:13:00.408Z,99990.16
2023-07-05T16:15:03.470Z,99981.16
2023-07-05T16:17:06.487Z,99986.38
2023-07-05T16:19:09.615Z,100007.91
2023-07-05T16:21:14.114Z,100011.06
2023-07-05T16:23:17.399Z,100015.53
2023-07-05T16:25:21.041Z,100019.09
2023-07-05T16:27:24.093Z,100006.97
2023-07-05T16:29:27.289Z,100016.16
2023-07-05T16:31:30.587Z,100035.16
2023-07-05T16:33:34.897Z,100023.50
2023-07-05T16:35:38.709Z,100020.69
2023-07-05T16:37:43.172Z,100021.16
2023-07-05T16:39:46.586Z,100023.56
2023-07-05T16:41:49.806Z,100021.44
2023-07-05T16:43:53.113Z,100038.78
2023-07-05T16:45:58.759Z,100032.81
2023-07-05T16:48:01.762Z,100027.53
2023-07-05T16:50:04.893Z,100033.03
2023-07-05T16:52:08.659Z,100019.13
2023-07-05T16:54:13.172Z,100030.34
2023-07-05T16:56:16.541Z,100028.19
2023-07-05T16:58:19.773Z,100031.22
2023-07-05T17:00:23.652Z,100041.31
2023-07-05T17:02:26.772Z,100046.81
2023-07-05T17:04:30.897Z,100043.88
2023-07-05T17:06:33.782Z,100041.66
2023-07-05T17:08:37.670Z,100037.50
2023-07-05T17:10:42.394Z,100046.59
2023-07-05T17:12:45.675Z,100046.81
2023-07-05T17:14:49.950Z,100045.88
2023-07-05T17:16:52.863Z,100045.19
2023-07-05T17:18:55.765Z,100055.13
2023-07-05T17:21:00.271Z,100052.56
2023-07-05T17:23:03.158Z,100058.53
2023-07-05T17:25:07.319Z,100067.56
2023-07-05T17:27:11.588Z,100067.06
2023-07-05T17:29:14.505Z,100068.56
2023-07-05T17:31:21.679Z,100077.91
2023-07-05T17:33:24.725Z,100079.25
2023-07-05T17:35:27.659Z,100083.50
2023-07-05T17:37:30.556Z,100088.75
2023-07-05T17:39:33.529Z,100091.44
2023-07-05T17:41:36.445Z,100087.75
2023-07-05T17:43:40.702Z,100092.16
2023-07-05T17:45:43.941Z,100089.72
2023-07-05T17:47:47.043Z,100094.56
2023-07-05T17:49:49.982Z,100109.69
2023-07-05T17:51:52.986Z,100121.09
2023-07-05T17:53:56.310Z,100123.47
2023-07-05T17:55:59.224Z,100124.94
2023-07-05T17:58:04.558Z,100127.28
2023-07-05T18:00:10.493Z,100121.31
2023-07-05T18:02:17.631Z,100125.88
2023-07-05T18:04:21.685Z,100122.75
2023-07-05T18:06:25.013Z,100119.97
2023-07-05T18:08:27.958Z,100131.97
2023-07-05T18:10:30.855Z,100134.91
2023-07-05T18:12:33.845Z,100136.19
2023-07-05T18:14:38.372Z,100129.59
2023-07-05T18:16:42.660Z,100140.81
2023-07-05T18:18:45.936Z,100139.50
2023-07-05T18:20:48.873Z,100132.28
2023-07-05T18:22:51.954Z,100126.00
2023-07-05T18:24:54.911Z,100134.19
2023-07-05T18:26:58.154Z,100127.28
2023-07-05T18:29:01.403Z,100127.31
2023-07-05T18:31:05.220Z,100131.47
2023-07-05T18:33:09.578Z,100132.59
2023-07-05T18:35:13.608Z,100126.59
2023-07-05T18:37:16.842Z,100129.72
2023-07-05T18:39:19.733Z,100142.09
2023-07-05T18:41:23.960Z,100134.69
2023-07-05T18:43:27.075Z,100147.63
2023-07-05T18:45:30.415Z,100140.75
2023-07-05T18:47:34.264Z,100147.19
2023-07-05T18:49:38.738Z,100153.91
2023-07-05T18:51:41.842Z,100152.22
2023-07-05T18:53:44.834Z,100153.69
2023-07-05T18:55:54.819Z,100155.75
2023-07-05T18:57:57.863Z,100163.84
2023-07-05T19:00:00.820Z,100162.09
2023-07-05T19:02:03.846Z,100171.09
2023-07-05T19:04:07.218Z,100168.78
2023-07-05T19:06:13.916Z,100161.66
2023-07-05T19:08:16.968Z,100165.69
2023-07-05T19:10:21.688Z,100162.88
2023-07-05T19:12:24.642Z,100173.16
2023-07-05T19:14:27.557Z,100168.91
2023-07-05T19:16:30.569Z,100176.03
2023-07-05T19:18:34.008Z,100169.88
2023-07-05T19:20:39.339Z,100170.13
2023-07-05T19:22:43.974Z,100170.94
2023-07-05T19:24:46.888Z,100170.41
2023-07-05T19:26:50.194Z,100176.41
2023-07-05T19:28:53.661Z,100186.13
2023-07-05T19:31:07.671Z,100184.16
2023-07-05T19:33:11.021Z,100186.78
2023-07-05T19:35:14.071Z,100189.75
2023-07-05T19:37:17.007Z,100193.78
2023-07-05T19:39:22.368Z,100201.69
2023-07-05T19:41:25.430Z,100203.47
2023-07-05T19:43:28.744Z,100220.47
2023-07-05T19:45:32.956Z,100214.31
2023-07-05T19:47:36.971Z,100222.75
2023-07-05T19:49:40.157Z,100228.16
2023-07-05T19:51:43.249Z,100229.13
2023-07-05T19:53:46.191Z,100233.50
2023-07-05T19:55:52.674Z,100234.34
2023-07-05T19:57:55.633Z,100232.03
2023-07-05T19:59:58.897Z,100236.63
2023-07-05T20:02:02.014Z,100238.94
2023-07-05T20:04:05.609Z,100244.22
2023-07-05T20:06:08.568Z,100246.66
2023-07-05T20:08:11.996Z,100243.13
2023-07-05T20:10:14.917Z,100252.84
2023-07-05T20:12:22.769Z,100254.34
2023-07-05T20:18:47.997Z,100262.00
2023-07-05T20:20:56.724Z,100267.03
2023-07-05T20:23:07.546Z,100270.66
2023-07-05T20:25:10.776Z,100261.38
2023-07-05T20:27:14.013Z,100267.44
2023-07-05T20:29:18.704Z,100265.44
2023-07-05T20:31:22.484Z,100267.78
2023-07-05T20:33:26.779Z,100263.81
2023-07-05T20:35:30.299Z,100267.88
2023-07-05T20:37:39.303Z,100271.91
2023-07-05T20:39:44.607Z,100275.25
2023-07-05T20:41:47.607Z,100275.59
2023-07-05T20:43:50.655Z,100281.75
2023-07-05T20:45:59.897Z,100281.53
2023-07-05T20:48:03.426Z,100280.25
2023-07-05T20:50:08.169Z,100279.38
2023-07-05T20:52:11.095Z,100282.59
2023-07-05T20:54:14.077Z,100290.28
2023-07-05T20:56:18.503Z,100290.47
2023-07-05T20:58:23.065Z,100287.56
2023-07-05T21:00:26.827Z,100289.19
2023-07-05T21:02:31.231Z,100298.81
2023-07-05T21:04:36.114Z,100295.28
2023-07-05T21:06:39.336Z,100292.63
2023-07-05T21:08:46.643Z,100294.84
2023-07-05T21:10:51.909Z,100290.00
2023-07-05T21:12:54.833Z,100287.69
2023-07-05T21:15:01.005Z,100287.81
2023-07-05T21:17:04.056Z,100295.19
2023-07-05T21:19:08.349Z,100290.47
2023-07-05T21:21:11.849Z,100292.19
2023-07-05T21:23:16.731Z,100298.16
2023-07-05T21:25:20.827Z,100299.00
2023-07-05T21:27:23.851Z,100303.50
2023-07-05T21:29:26.883Z,100301.16
2023-07-05T21:31:30.775Z,100303.94
2023-07-05T21:33:34.490Z,100303.19
2023-07-05T21:35:39.323Z,100295.59
2023-07-05T21:37:43.529Z,100297.44
2023-07-05T21:39:46.681Z,100297.97
2023-07-05T21:41:50.479Z,100299.28
2023-07-05T21:43:53.405Z,100298.41
2023-07-05T21:45:57.425Z,100295.81
2023-07-05T21:48:04.392Z,100294.75
2023-07-05T21:50:09.131Z,100306.31
2023-07-05T21:52:13.538Z,100297.44
2023-07-05T21:54:16.844Z,100300.44
2023-07-05T21:56:20.457Z,100305.59
2023-07-05T21:58:24.824Z,100310.16
2023-07-05T22:00:28.510Z,100315.09
2023-07-05T22:02:34.955Z,100310.16
2023-07-05T22:04:38.112Z,100306.66
2023-07-05T22:06:41.096Z,100306.13
2023-07-05T22:08:45.721Z,100310.59
2023-07-05T22:10:48.686Z,100305.91
2023-07-05T22:12:54.090Z,100304.75
2023-07-05T22:15:00.635Z,100313.03
2023-07-05T22:17:04.490Z,100317.44
2023-07-05T22:19:07.447Z,100314.13
2023-07-05T22:21:10.558Z,100318.81
2023-07-05T22:23:13.818Z,100322.22
2023-07-05T22:25:18.823Z,100321.44
2023-07-05T22:27:22.429Z,100325.66
2023-07-05T22:29:25.438Z,100328.28
2023-07-05T22:31:28.937Z,100330.22
2023-07-05T22:33:32.068Z,100334.19
2023-07-05T22:35:35.532Z,100340.72
2023-07-05T22:37:38.808Z,100337.72
2023-07-05T22:39:41.729Z,100339.03
2023-07-05T22:41:47.663Z,100338.19
2023-07-05T22:43:50.612Z,100346.75
2023-07-05T22:45:57.987Z,100350.56
2023-07-05T22:48:01.179Z,100352.97
2023-07-05T22:50:04.336Z,100354.19
2023-07-05T22:52:08.242Z,100346.97
2023-07-05T22:54:11.176Z,100349.06
2023-07-05T22:56:14.119Z,100346.03
2023-07-05T22:58:18.728Z,100350.59
2023-07-05T23:00:23.576Z,100355.16
2023-07-05T23:02:27.122Z,100358.69
2023-07-05T23:04:30.441Z,100369.53
2023-07-05T23:06:33.400Z,100364.78
2023-07-05T23:08:37.130Z,100372.75
2023-07-05T23:10:40.070Z,100374.56
2023-07-05T23:12:43.913Z,100375.41
2023-07-05T23:14:48.865Z,100374.84
2023-07-05T23:16:52.114Z,100376.06
2023-07-05T23:18:55.621Z,100376.19
2023-07-05T23:21:00.291Z,100386.06
2023-07-05T23:23:03.656Z,100383.88
2023-07-05T23:25:07.119Z,100387.47
2023-07-05T23:27:10.434Z,100391.09
2023-07-05T23:29:15.506Z,100393.84
2023-07-05T23:31:23.570Z,100386.81
2023-07-05T23:33:28.085Z,100384.06
2023-07-05T23:35:32.168Z,100387.19
2023-07-05T23:37:35.103Z,100385.78
2023-07-05T23:39:39.029Z,100383.84
2023-07-05T23:41:42.062Z,100384.34
2023-07-05T23:43:45.067Z,100388.78
2023-07-05T23:45:48.421Z,100391.09
2023-07-05T23:47:53.052Z,100392.09
2023-07-05T23:49:55.989Z,100397.53
2023-07-05T23:51:59.259Z,100393.09
2023-07-05T23:54:02.875Z,100402.97
2023-07-05T23:56:06.947Z,100393.19
2023-07-05T23:58:10.825Z,100398.56
